createdAt,value
2019-05-26T00:09:10.866Z,99742.75
2019-05-26T00:19:15.439Z,99729.52
2019-05-26T00:29:19.893Z,99730.47
2019-05-26T00:39:24.910Z,99725.34
2019-05-26T00:49:29.688Z,99734.19
2019-05-26T00:59:34.265Z,99738.20
2019-05-26T01:09:38.709Z,99735.97
2019-05-26T01:19:43.292Z,99736.88
2019-05-26T01:29:47.995Z,99744.90
2019-05-26T01:39:52.718Z,99740.13
2019-05-26T01:49:57.217Z,99739.67
2019-05-26T02:00:01.688Z,99743.94
2019-05-26T02:10:07.727Z,99744.08
2019-05-26T02:20:13.145Z,99740.64
2019-05-26T02:30:19.139Z,99751.77
2019-05-26T02:40:24.319Z,99747.55
2019-05-26T02:50:28.974Z,99738.50
2019-05-26T03:00:42.735Z,99739.09
2019-05-26T03:10:50.668Z,99742.20
2019-05-26T03:20:56.901Z,99744.04
2019-05-26T03:31:01.419Z,99742.48
2019-05-26T03:41:06.319Z,99750.67
2019-05-26T03:51:11.915Z,99762.02
2019-05-26T04:01:16.515Z,99758.41
2019-05-26T04:11:22.048Z,99765.83
2019-05-26T04:21:26.502Z,99770.36
2019-05-26T04:31:30.996Z,99764.63
2019-05-26T04:41:36.034Z,99758.33
2019-05-26T04:51:40.643Z,99752.03
2019-05-26T05:01:45.132Z,99756.37
2019-05-26T05:11:49.712Z,99766.53
2019-05-26T05:21:54.323Z,99761.76
2019-05-26T05:31:58.911Z,99758.21
2019-05-26T05:42:03.523Z,99760.61
2019-05-26T05:52:08.153Z,99759.56
2019-05-26T06:02:12.825Z,99751.14
2019-05-26T06:12:17.362Z,99739.05
2019-05-26T06:22:22.105Z,99738.19
2019-05-26T06:32:26.713Z,99741.53
2019-05-26T06:42:31.207Z,99747.98
2019-05-26T06:52:36.590Z,99748.89
2019-05-26T07:02:41.132Z,99740.53
2019-05-26T07:12:45.608Z,99740.17
2019-05-26T07:22:50.454Z,99744.01
2019-05-26T07:32:55.136Z,99725.34
2019-05-26T07:42:59.619Z,99722.34
2019-05-26T07:53:04.261Z,99726.21
2019-05-26T08:03:09.097Z,99718.13
2019-05-26T08:13:13.606Z,99727.25
2019-05-26T08:23:18.272Z,99725.02
2019-05-26T08:33:22.894Z,99728.87
2019-05-26T08:43:27.773Z,99727.08
2019-05-26T08:53:32.364Z,99719.63
2019-05-26T09:03:36.959Z,99712.52
2019-05-26T09:13:46.279Z,99702.09
2019-05-26T09:23:50.948Z,99681.06
2019-05-26T09:33:55.419Z,99673.64
2019-05-26T09:43:59.952Z,99669.89
2019-05-26T09:54:05.119Z,99651.73
2019-05-26T10:04:09.605Z,99660.34
2019-05-26T10:14:14.138Z,99652.07
2019-05-26T10:24:18.754Z,99660.33
2019-05-26T10:34:23.319Z,99630.83
2019-05-26T10:44:27.897Z,99614.61
2019-05-26T10:54:32.439Z,99621.22
2019-05-26T11:04:38.252Z,99604.80
2019-05-26T11:14:42.734Z,99594.09
2019-05-26T11:24:47.438Z,99585.33
2019-05-26T11:35:01.049Z,99578.23
2019-05-26T11:44:58.098Z,99558.46
2019-05-26T11:55:02.598Z,99533.48
2019-05-26T12:05:08.313Z,99537.31
2019-05-26T12:15:13.964Z,99508.66
2019-05-26T12:25:18.798Z,99495.36
2019-05-26T12:35:25.061Z,99483.62
2019-05-26T12:45:29.551Z,99483.62
2019-05-26T12:55:34.217Z,99459.27
2019-05-26T13:05:38.758Z,99450.50
2019-05-26T13:15:43.442Z,99467.14
2019-05-26T13:25:48.021Z,99446.91
2019-05-26T13:35:52.547Z,99444.95
2019-05-26T13:45:56.975Z,99447.63
2019-05-26T13:56:01.447Z,99441.84
2019-05-26T14:06:07.207Z,99427.51
2019-05-26T14:16:12.484Z,99429.25
2019-05-26T14:26:17.134Z,99417.91
2019-05-26T14:36:21.706Z,99418.29
2019-05-26T14:46:27.464Z,99409.56
2019-05-26T14:56:32.006Z,99403.28
2019-05-26T15:06:36.574Z,99382.95
2019-05-26T15:16:41.081Z,99383.86
2019-05-26T15:26:45.513Z,99382.00
2019-05-26T15:36:49.990Z,99383.00
2019-05-26T15:46:54.434Z,99375.02
2019-05-26T15:56:58.919Z,99377.30
2019-05-26T16:07:03.551Z,99366.63
2019-05-26T16:17:08.435Z,99366.54
2019-05-26T16:27:19.159Z,99366.64
2019-05-26T16:37:19.165Z,99362.33
2019-05-26T16:47:23.602Z,99360.94
2019-05-26T16:57:29.015Z,99354.39
2019-05-26T17:07:34.514Z,99346.08
2019-05-26T17:17:39.109Z,99355.98
2019-05-26T17:27:43.583Z,99346.27
2019-05-26T17:37:48.087Z,99344.79
2019-05-26T17:47:52.606Z,99349.51
2019-05-26T17:57:57.072Z,99354.38
2019-05-26T18:08:01.577Z,99355.02
2019-05-26T18:18:06.242Z,99352.33
2019-05-26T18:28:10.732Z,99348.08
2019-05-26T18:38:15.310Z,99349.53
2019-05-26T18:48:19.780Z,99355.66
2019-05-26T18:58:24.458Z,99357.94
2019-05-26T19:08:29.901Z,99369.66
2019-05-26T19:18:34.596Z,99365.81
2019-05-26T19:28:39.090Z,99371.67
2019-05-26T19:38:43.773Z,99369.83
2019-05-26T19:48:49.161Z,99381.90
2019-05-26T19:58:53.833Z,99372.52
2019-05-26T20:08:58.544Z,99371.95
2019-05-26T20:19:03.198Z,99363.92
2019-05-26T20:29:07.780Z,99370.89
2019-05-26T20:39:12.210Z,99365.19
2019-05-26T20:49:16.679Z,99367.13
2019-05-26T20:59:21.505Z,99363.77
2019-05-26T21:09:26.048Z,99361.77
2019-05-26T21:19:30.553Z,99368.34
2019-05-26T21:29:35.228Z,99358.78
2019-05-26T21:39:39.676Z,99361.48
2019-05-26T21:49:44.174Z,99354.63
2019-05-26T21:59:48.651Z,99349.05
2019-05-26T22:09:53.181Z,99346.75
2019-05-26T22:19:57.695Z,99345.20
2019-05-26T22:30:02.240Z,99345.66
2019-05-26T22:40:08.656Z,99332.88
2019-05-26T22:50:14.724Z,99323.84
2019-05-26T23:00:19.762Z,99318.44
2019-05-26T23:10:24.386Z,99314.46
2019-05-26T23:20:28.831Z,99316.33
2019-05-26T23:30:33.428Z,99313.27
2019-05-26T23:40:37.882Z,99307.34
2019-05-26T23:50:42.342Z,99301.41
